Time;durP1;ratioP1;P1;durP2;ratioP2;P2;SDS_P1;SDS_P2;PMS_P1;PMS_P2;Temp;Humidity;BMP_temperature;BMP_pressure;BME280_temperature;BME280_humidity;BME280_pressure;Samples;Min_cycle;Max_cycle;Signal;HPM_P1;HPM_P2
2022/01/16 00:00:21;;;;;;;14.30;5.43;;;;;;;2.41;94.35;102491.13;4995861;28;97377;-36
2022/01/16 00:05:22;;;;;;;13.13;5.75;;;;;;;2.43;94.28;102489.34;4994439;28;96503;-36
2022/01/16 00:07:48;;;;;;;9.77;5.82;;;;;;;2.25;94.58;102452.81;4995321;28;96852;-36
2022/01/16 00:10:16;;;;;;;8.82;4.70;;;;;;;2.36;94.71;102475.97;4996202;28;99308;-37
2022/01/16 00:12:47;;;;;;;10.55;5.95;;;;;;;2.42;94.39;102492.00;4994878;28;99533;-36
2022/01/16 00:15:13;;;;;;;16.20;7.05;;;;;;;2.48;94.25;102511.63;4996658;28;96597;-37
2022/01/16 00:17:48;;;;;;;10.50;4.10;;;;;;;2.51;94.53;102511.59;4995465;28;96550;-37
2022/01/16 00:20:14;;;;;;;19.10;5.68;;;;;;;2.52;94.56;102493.75;4996550;28;97888;-37
2022/01/16 00:22:41;;;;;;;15.65;5.65;;;;;;;2.56;94.54;102487.53;4996587;28;97232;-37
2022/01/16 00:25:07;;;;;;;9.95;5.57;;;;;;;2.55;94.06;102472.34;4993941;28;96759;-36
2022/01/16 00:27:33;;;;;;;20.95;7.18;;;;;;;2.55;94.26;102469.69;4995029;28;96811;-37
2022/01/16 00:29:58;;;;;;;9.52;6.45;;;;;;;2.45;94.91;102458.09;4996240;28;97296;-37
2022/01/16 00:32:23;;;;;;;11.88;5.63;;;;;;;2.47;94.72;102461.69;4995695;28;112328;-36
2022/01/16 00:34:48;;;;;;;17.95;6.03;;;;;;;2.62;94.69;102483.94;4996775;28;96516;-37
2022/01/16 00:37:14;;;;;;;25.15;7.88;;;;;;;2.49;95.00;102459.91;4995470;28;116536;-37
2022/01/16 00:39:39;;;;;;;10.20;4.80;;;;;;;2.47;94.56;102459.00;4995995;28;97878;-36
2022/01/16 00:42:05;;;;;;;25.67;6.85;;;;;;;2.68;94.81;102482.16;4996073;28;99285;-37
2022/01/16 00:44:30;;;;;;;14.13;6.55;;;;;;;2.65;94.68;102470.56;4996150;28;96689;-36
2022/01/16 00:46:55;;;;;;;24.40;3.72;;;;;;;2.57;94.63;102465.22;4995684;28;105557;-37
2022/01/16 00:49:21;;;;;;;20.38;8.05;;;;;;;2.72;94.86;102488.41;4993587;28;109254;-37
2022/01/16 00:51:46;;;;;;;16.17;6.07;;;;;;;2.73;95.05;102479.47;4995578;28;109114;-37
2022/01/16 00:54:12;;;;;;;18.83;7.22;;;;;;;2.70;94.86;102460.75;4996166;28;96524;-36
2022/01/16 00:56:37;;;;;;;19.77;9.55;;;;;;;2.73;94.70;102452.69;4995975;28;96776;-37
2022/01/16 00:59:03;;;;;;;19.63;8.10;;;;;;;2.80;94.81;102473.19;4995111;28;97452;-36
2022/01/16 01:01:28;;;;;;;17.83;7.25;;;;;;;2.67;94.88;102412.59;4994358;28;100685;-37
2022/01/16 01:03:53;;;;;;;25.63;7.18;;;;;;;2.76;95.17;102426.84;4995914;28;96611;-36
2022/01/16 01:06:18;;;;;;;21.55;6.93;;;;;;;2.84;94.88;102432.16;4995975;28;100107;-37
2022/01/16 01:08:44;;;;;;;17.70;7.10;;;;;;;2.81;95.22;102445.53;4995610;28;97842;-37
2022/01/16 01:11:14;;;;;;;17.38;7.45;;;;;;;2.68;95.19;102409.91;4995555;28;97842;-36
2022/01/16 01:14:07;;;;;;;16.55;5.40;;;;;;;2.72;95.28;102430.41;4994933;28;96599;-36
2022/01/16 01:19:19;;;;;;;14.95;4.90;;;;;;;2.87;95.39;102469.59;4995744;28;97054;-36
2022/01/16 01:21:44;;;;;;;21.13;6.82;;;;;;;2.75;95.23;102441.09;4993868;28;100659;-36
2022/01/16 01:24:10;;;;;;;31.58;9.77;;;;;;;2.89;95.38;102453.56;4995492;28;96793;-37
2022/01/16 01:26:43;;;;;;;16.83;7.55;;;;;;;2.86;95.44;102448.19;4995663;28;96778;-37
2022/01/16 01:29:08;;;;;;;18.27;7.03;;;;;;;2.86;95.37;102449.09;4995430;28;98001;-36
2022/01/16 01:31:34;;;;;;;14.95;6.05;;;;;;;2.79;95.47;102451.78;4995666;28;97772;-36
2022/01/16 01:33:59;;;;;;;12.35;5.38;;;;;;;2.93;95.07;102458.88;4994824;28;110096;-36
2022/01/16 01:36:25;;;;;;;16.73;6.75;;;;;;;2.91;95.15;102463.34;4995156;28;96796;-37
2022/01/16 01:38:50;;;;;;;18.92;5.50;;;;;;;2.69;95.30;102406.38;4993981;28;98588;-37
2022/01/16 01:41:15;;;;;;;16.42;5.45;;;;;;;2.96;94.96;102405.34;4994894;28;112486;-37
2022/01/16 01:51:44;;;;;;;8.05;3.25;;;;;;;2.94;95.43;102384.84;4995137;28;97145;-36
2022/01/16 01:54:10;;;;;;;17.33;6.07;;;;;;;2.86;95.87;102390.22;4994992;28;96470;-36
2022/01/16 01:56:37;;;;;;;16.08;7.43;;;;;;;2.91;95.67;102419.66;4995489;28;96855;-37
2022/01/16 01:59:03;;;;;;;16.95;7.13;;;;;;;2.88;95.41;102425.88;4992758;28;100718;-36
2022/01/16 02:01:30;;;;;;;15.25;6.20;;;;;;;2.90;95.26;102444.63;4993349;28;101040;-36
2022/01/16 02:03:55;;;;;;;15.43;7.03;;;;;;;3.00;95.23;102459.72;4993001;28;96570;-37
2022/01/16 02:06:24;;;;;;;12.45;5.05;;;;;;;3.02;95.19;102474.00;4993686;28;96816;-36
2022/01/16 02:08:52;;;;;;;11.95;4.95;;;;;;;2.98;95.05;102457.09;4993233;28;99173;-36
2022/01/16 02:11:20;;;;;;;21.52;9.43;;;;;;;2.96;95.08;102477.59;4993104;28;99114;-36
2022/01/16 02:13:56;;;;;;;16.02;5.35;;;;;;;3.03;95.29;102477.56;4993551;28;96630;-37
2022/01/16 02:28:12;;;;;;;13.65;6.32;;;;;;;2.83;95.03;102435.72;4995334;28;96624;-36
2022/01/16 02:36:08;;;;;;;15.65;6.63;;;;;;;3.03;94.75;102472.22;4995135;28;96573;-37
2022/01/16 02:38:33;;;;;;;23.45;9.30;;;;;;;3.01;94.85;102479.38;4993223;28;96850;-37
2022/01/16 02:41:03;;;;;;;16.70;7.40;;;;;;;3.00;94.89;102485.63;4994697;28;97512;-37
2022/01/16 02:43:31;;;;;;;13.93;5.55;;;;;;;2.98;95.30;102464.22;4994064;28;99259;-37
2022/01/16 02:46:35;;;;;;;9.88;5.18;;;;;;;2.93;95.09;102456.22;4994402;28;96573;-36
2022/01/16 02:48:48;;;;;;;27.13;8.70;;;;;;;2.88;94.55;102447.28;4995176;28;96701;-37
2022/01/16 02:51:18;;;;;;;12.38;5.90;;;;;;;2.67;94.87;102405.47;4996154;28;98994;-37
2022/01/16 02:53:46;;;;;;;21.05;8.23;;;;;;;2.92;94.84;102446.38;4997241;28;98888;-37
2022/01/16 02:56:13;;;;;;;15.57;7.10;;;;;;;2.91;94.84;102444.63;4995864;28;97621;-37
2022/01/16 02:58:38;;;;;;;11.10;6.78;;;;;;;2.86;94.52;102437.47;4997510;28;96773;-37
2022/01/16 03:01:03;;;;;;;14.75;6.70;;;;;;;2.81;94.85;102423.25;4997560;28;97457;-37
2022/01/16 03:03:29;;;;;;;16.13;7.68;;;;;;;2.86;94.55;102429.47;4997846;28;97462;-37
2022/01/16 03:05:54;;;;;;;7.75;4.57;;;;;;;2.91;94.64;102430.34;4997364;28;100174;-36
2022/01/16 03:08:19;;;;;;;19.35;7.55;;;;;;;2.84;94.90;102412.53;4996962;28;109121;-37
2022/01/16 03:13:32;;;;;;;16.75;6.22;;;;;;;2.91;94.58;102428.56;4998192;28;96861;-37
2022/01/16 03:15:57;;;;;;;18.60;7.72;;;;;;;2.87;94.66;102409.84;4997532;28;96629;-36
2022/01/16 03:23:31;;;;;;;15.82;6.28;;;;;;;2.85;94.60;102400.94;4997253;28;96839;-36
2022/01/16 03:25:57;;;;;;;24.30;8.52;;;;;;;2.82;94.74;102401.84;4996883;28;106595;-37
2022/01/16 03:28:25;;;;;;;10.25;3.97;;;;;;;2.66;94.72;102384.94;4997549;28;96761;-36
2022/01/16 03:30:51;;;;;;;18.88;7.75;;;;;;;2.79;94.70;102406.28;4997026;28;98014;-36
2022/01/16 03:33:17;;;;;;;19.40;8.60;;;;;;;2.65;94.91;102380.50;4996971;28;97187;-36
2022/01/16 03:35:42;;;;;;;12.77;4.97;;;;;;;2.76;94.51;102401.84;4997499;28;96701;-36
2022/01/16 03:38:08;;;;;;;11.05;5.97;;;;;;;2.74;94.96;102399.19;4997598;28;96864;-36
2022/01/16 03:40:34;;;;;;;11.80;4.38;;;;;;;2.62;94.93;102372.50;4997066;28;97430;-36
2022/01/16 03:43:09;;;;;;;11.70;6.68;;;;;;;2.67;94.80;102378.72;4995485;28;100801;-37
2022/01/16 03:45:35;;;;;;;13.07;6.47;;;;;;;2.71;94.53;102380.47;4996855;28;96575;-36
2022/01/16 03:48:00;;;;;;;15.73;8.93;;;;;;;2.65;94.28;102363.56;4995667;28;96861;-36
2022/01/16 03:50:26;;;;;;;17.27;7.78;;;;;;;2.75;94.40;102389.38;4995767;28;125424;-37
2022/01/16 03:52:51;;;;;;;8.85;5.72;;;;;;;2.62;94.78;102369.81;4996843;28;97842;-36
2022/01/16 03:55:17;;;;;;;14.40;7.47;;;;;;;2.43;94.67;102350.28;4996971;28;96750;-36
2022/01/16 03:57:42;;;;;;;7.53;4.30;;;;;;;2.49;94.57;102360.94;4996249;28;108278;-37
2022/01/16 04:00:08;;;;;;;15.52;5.65;;;;;;;2.67;94.76;102388.50;4994953;28;109094;-36
2022/01/16 04:02:33;;;;;;;11.90;5.40;;;;;;;2.66;94.81;102390.28;4996992;28;97965;-36
2022/01/16 04:04:59;;;;;;;13.63;6.28;;;;;;;2.68;95.06;102387.63;4995313;28;96671;-37
2022/01/16 04:07:29;;;;;;;17.23;7.43;;;;;;;2.59;94.77;102369.81;4996555;28;101174;-37
2022/01/16 04:09:54;;;;;;;19.13;8.55;;;;;;;2.57;94.84;102366.25;4996106;28;97405;-36
2022/01/16 04:12:23;;;;;;;15.20;8.07;;;;;;;2.56;95.00;102353.78;4996319;28;99298;-36
2022/01/16 04:17:19;;;;;;;12.85;6.78;;;;;;;2.66;94.92;102384.94;4996756;28;96827;-36
2022/01/16 04:19:45;;;;;;;8.83;4.70;;;;;;;2.56;94.64;102364.50;4994984;28;100741;-36
2022/01/16 04:22:12;;;;;;;11.40;5.22;;;;;;;2.69;94.84;102379.59;4994904;28;100738;-36
2022/01/16 04:24:37;;;;;;;11.45;6.70;;;;;;;2.72;94.57;102392.09;4994941;28;96690;-37
2022/01/16 04:27:03;;;;;;;17.30;7.85;;;;;;;2.71;94.88;102382.25;4996910;28;96746;-36
2022/01/16 04:29:29;;;;;;;17.10;8.23;;;;;;;2.72;94.78;102376.91;4995985;28;97979;-36
2022/01/16 04:31:54;;;;;;;15.48;5.40;;;;;;;2.71;94.71;102375.13;4994688;28;99166;-36
2022/01/16 04:34:25;;;;;;;9.30;6.28;;;;;;;2.75;94.74;102387.59;4996076;28;96475;-36
2022/01/16 04:36:50;;;;;;;17.05;6.82;;;;;;;2.71;94.75;102377.78;4995725;28;107164;-37
2022/01/16 04:39:19;;;;;;;12.18;6.47;;;;;;;2.65;94.90;102360.91;4995077;28;126486;-37
2022/01/16 04:44:29;;;;;;;16.27;7.13;;;;;;;2.82;94.69;102383.09;4996601;28;96520;-37
2022/01/16 04:46:55;;;;;;;7.55;4.95;;;;;;;2.84;94.75;102380.44;4996079;28;96814;-36
2022/01/16 04:49:21;;;;;;;13.98;5.82;;;;;;;2.84;94.70;102378.63;4994475;28;100867;-36
2022/01/16 04:51:46;;;;;;;9.02;5.53;;;;;;;2.72;94.90;102344.81;4996345;28;97443;-37
2022/01/16 04:54:12;;;;;;;10.05;6.40;;;;;;;2.73;94.68;102356.38;4994730;28;96547;-36
2022/01/16 04:56:38;;;;;;;13.60;7.88;;;;;;;2.84;94.88;102367.94;4995746;28;96738;-37
2022/01/16 04:59:03;;;;;;;8.50;5.90;;;;;;;2.87;94.72;102378.63;4994629;28;98517;-36
2022/01/16 05:01:37;;;;;;;6.78;4.50;;;;;;;2.76;94.30;102353.69;4995760;28;97360;-37
2022/01/16 05:04:03;;;;;;;10.50;5.32;;;;;;;2.73;94.61;102345.69;4995238;28;109489;-36
2022/01/16 05:06:28;;;;;;;14.63;5.18;;;;;;;2.90;94.74;102381.28;4996034;28;96762;-37
2022/01/16 05:08:53;;;;;;;10.80;5.90;;;;;;;2.90;94.75;102375.91;4994508;28;125346;-37
2022/01/16 05:11:24;;;;;;;12.43;6.75;;;;;;;2.82;94.85;102364.38;4994276;28;125871;-37
2022/01/16 05:16:38;;;;;;;16.08;7.47;;;;;;;2.94;94.47;102375.00;4996293;28;96814;-36
2022/01/16 05:19:14;;;;;;;12.48;5.05;;;;;;;3.00;94.71;102383.91;4995567;28;97921;-37
2022/01/16 05:21:42;;;;;;;17.50;7.97;;;;;;;2.92;94.79;102365.22;4993906;28;100823;-36
2022/01/16 05:24:10;;;;;;;11.27;5.68;;;;;;;2.96;94.55;102369.66;4993671;28;96661;-37
2022/01/16 05:26:40;;;;;;;8.10;5.47;;;;;;;3.02;94.51;102374.97;4994257;28;96759;-36
2022/01/16 05:29:06;;;;;;;9.15;5.50;;;;;;;3.05;94.90;102382.09;4993959;28;99632;-36
2022/01/16 05:31:31;;;;;;;9.75;5.63;;;;;;;3.03;94.75;102379.44;4995132;28;99052;-37
2022/01/16 05:33:57;;;;;;;9.38;4.80;;;;;;;2.95;94.48;102367.88;4995703;28;96464;-36
2022/01/16 05:36:22;;;;;;;14.07;5.68;;;;;;;2.91;94.77;102355.44;4994756;28;116773;-37
2022/01/16 05:38:49;;;;;;;10.98;4.57;;;;;;;2.95;94.31;102359.84;4995067;28;97466;-36
2022/01/16 05:41:14;;;;;;;12.27;4.95;;;;;;;3.04;94.47;102369.63;4995521;28;98044;-36
2022/01/16 05:43:39;;;;;;;10.35;4.72;;;;;;;3.08;94.59;102372.28;4995251;28;96575;-36
2022/01/16 05:46:05;;;;;;;5.05;3.70;;;;;;;3.11;94.49;102376.72;4994363;28;116511;-36
2022/01/16 05:48:30;;;;;;;16.33;7.50;;;;;;;3.15;94.78;102375.81;4994393;28;98785;-36
2022/01/16 05:50:55;;;;;;;7.03;4.50;;;;;;;3.19;94.63;102383.81;4994238;28;118343;-36
2022/01/16 05:53:21;;;;;;;9.70;4.78;;;;;;;3.07;94.56;102358.88;4994712;28;106385;-36
2022/01/16 05:55:47;;;;;;;9.32;5.82;;;;;;;3.17;94.56;102368.63;4993640;28;97774;-36
2022/01/16 05:58:14;;;;;;;10.70;5.10;;;;;;;3.10;94.83;102365.13;4994720;28;97898;-37
2022/01/16 06:00:39;;;;;;;16.33;5.90;;;;;;;3.26;94.98;102386.44;4992788;28;99143;-37
2022/01/16 06:03:06;;;;;;;9.98;4.40;;;;;;;3.17;94.58;102358.81;4994841;28;96417;-37
2022/01/16 06:05:32;;;;;;;6.97;4.03;;;;;;;3.28;94.87;102377.47;4993820;28;96795;-37
2022/01/16 06:08:00;;;;;;;12.27;4.78;;;;;;;3.28;94.57;102372.13;4993124;28;99141;-36
2022/01/16 06:10:26;;;;;;;9.38;4.43;;;;;;;3.18;94.58;102351.69;4994627;28;97365;-37
2022/01/16 06:12:52;;;;;;;11.48;4.25;;;;;;;3.24;94.25;102364.13;4993115;28;96664;-37
2022/01/16 06:15:21;;;;;;;7.22;4.30;;;;;;;3.40;94.25;102387.22;4995077;28;96785;-36
2022/01/16 06:17:47;;;;;;;5.40;3.35;;;;;;;3.43;94.06;102375.59;4993118;28;100854;-37
2022/01/16 06:20:15;;;;;;;7.65;3.55;;;;;;;3.46;94.16;102381.84;4993037;28;100746;-37
2022/01/16 06:22:41;;;;;;;3.33;2.03;;;;;;;3.53;93.45;102388.03;4994625;28;96877;-36
2022/01/16 06:25:07;;;;;;;2.22;1.67;;;;;;;3.53;93.02;102363.94;4994403;28;96754;-37
2022/01/16 06:27:32;;;;;;;2.92;1.75;;;;;;;3.62;92.49;102366.50;4994612;28;97378;-36
2022/01/16 06:29:57;;;;;;;1.02;0.88;;;;;;;3.81;91.50;102384.25;4993492;28;99190;-36
2022/01/16 06:32:22;;;;;;;2.22;1.55;;;;;;;3.93;90.53;102382.34;4993513;28;116781;-36
2022/01/16 06:34:48;;;;;;;1.58;0.95;;;;;;;3.98;89.70;102380.50;4994326;28;111188;-36
2022/01/16 06:37:13;;;;;;;2.05;1.67;;;;;;;4.03;89.92;102376.88;4991463;28;125702;-36
2022/01/16 06:39:38;;;;;;;1.65;1.08;;;;;;;4.21;89.23;102394.56;4993362;28;126325;-36
2022/01/16 06:42:04;;;;;;;1.83;1.40;;;;;;;4.23;89.81;102389.19;4993781;28;117409;-36
2022/01/16 06:44:29;;;;;;;1.67;1.15;;;;;;;4.14;89.31;102379.44;4993151;28;96821;-37
2022/01/16 06:46:55;;;;;;;2.08;1.63;;;;;;;4.20;89.00;102387.44;4993706;28;112672;-36
2022/01/16 06:49:20;;;;;;;6.05;2.28;;;;;;;4.34;89.34;102407.84;4994352;28;97333;-37
2022/01/16 06:51:45;;;;;;;1.35;1.13;;;;;;;4.35;88.59;102406.97;4993959;28;113886;-36
2022/01/16 06:54:11;;;;;;;2.88;1.63;;;;;;;4.42;89.07;102419.41;4995001;28;96717;-36
2022/01/16 06:56:36;;;;;;;5.60;1.92;;;;;;;4.44;88.95;102428.31;4993765;28;97207;-36
2022/01/16 06:59:02;;;;;;;3.33;1.77;;;;;;;4.36;88.80;102420.38;4993100;28;108768;-36
2022/01/16 07:01:27;;;;;;;5.93;1.85;;;;;;;4.50;89.45;102443.47;4994007;28;96567;-36
2022/01/16 07:03:55;;;;;;;4.18;2.45;;;;;;;4.51;89.29;102435.41;4994000;28;96856;-36
2022/01/16 07:06:21;;;;;;;3.95;1.80;;;;;;;4.56;88.71;102440.72;4994047;28;97932;-36
2022/01/16 07:08:46;;;;;;;3.38;1.77;;;;;;;4.49;88.87;102417.53;4994095;28;97887;-36
2022/01/16 07:11:12;;;;;;;7.68;2.50;;;;;;;4.51;89.17;102430.03;4994097;28;96629;-36
2022/01/16 07:13:38;;;;;;;3.58;2.22;;;;;;;4.48;88.80;102430.03;4994432;28;96736;-37
2022/01/16 07:16:04;;;;;;;4.32;2.63;;;;;;;4.49;88.88;102428.28;4993915;28;97775;-36
2022/01/16 07:18:29;;;;;;;1.55;1.25;;;;;;;4.63;88.75;102464.78;4994593;28;97506;-37
2022/01/16 07:20:55;;;;;;;5.35;1.80;;;;;;;4.67;88.35;102466.53;4994233;28;96430;-36
2022/01/16 07:23:21;;;;;;;3.33;1.85;;;;;;;4.70;88.66;102484.41;4994048;28;96659;-37
2022/01/16 07:25:47;;;;;;;3.90;1.90;;;;;;;4.62;88.70;102457.66;4991785;28;98767;-37
2022/01/16 07:28:12;;;;;;;3.67;2.60;;;;;;;4.79;88.43;102486.06;4993497;28;99097;-37
2022/01/16 07:30:38;;;;;;;2.97;1.92;;;;;;;4.85;88.58;102489.59;4993662;28;101507;-36
2022/01/16 07:33:05;;;;;;;3.72;2.30;;;;;;;4.85;88.81;102483.34;4992512;28;96835;-36
2022/01/16 07:35:31;;;;;;;9.65;2.92;;;;;;;4.78;88.58;102463.72;4994391;28;97382;-37
2022/01/16 07:37:57;;;;;;;2.05;1.65;;;;;;;4.81;88.41;102463.66;4995651;28;98846;-36
2022/01/16 07:40:23;;;;;;;8.25;2.40;;;;;;;4.98;89.01;102501.09;4997281;28;96499;-36
2022/01/16 07:42:49;;;;;;;9.50;3.20;;;;;;;5.04;88.64;102492.94;4997639;28;96775;-36
2022/01/16 07:45:14;;;;;;;3.28;1.65;;;;;;;4.97;88.50;102471.56;4996804;28;98013;-37
2022/01/16 07:47:40;;;;;;;5.00;2.58;;;;;;;4.94;88.95;102464.44;4996174;28;113370;-37
2022/01/16 07:50:06;;;;;;;3.55;2.25;;;;;;;4.99;88.59;102476.00;4995207;28;96643;-36
2022/01/16 07:52:32;;;;;;;8.05;2.55;;;;;;;5.05;89.27;102493.81;4995458;28;97527;-37
2022/01/16 07:54:57;;;;;;;6.68;3.38;;;;;;;5.02;89.42;102489.38;4996807;28;97449;-36
2022/01/16 07:57:23;;;;;;;3.17;2.25;;;;;;;5.10;89.53;102524.19;4995341;28;127249;-37
2022/01/16 07:59:48;;;;;;;6.10;3.83;;;;;;;5.09;89.50;102528.69;4995570;28;116923;-37
2022/01/16 08:02:13;;;;;;;8.35;3.85;;;;;;;4.87;89.63;102490.47;4996186;28;105906;-37
2022/01/16 08:04:39;;;;;;;7.72;3.70;;;;;;;5.02;89.82;102523.41;4995565;28;126254;-36
2022/01/16 08:07:07;;;;;;;9.57;3.47;;;;;;;4.97;89.82;102525.28;4996887;28;97636;-37
2022/01/16 08:09:32;;;;;;;14.73;5.20;;;;;;;4.98;89.92;102527.03;4996853;28;96665;-36
2022/01/16 08:11:58;;;;;;;7.88;4.47;;;;;;;4.84;90.29;102501.25;4996898;28;96852;-36
2022/01/16 08:14:23;;;;;;;9.45;4.20;;;;;;;4.91;90.39;102526.25;4995897;28;97933;-37
2022/01/16 08:16:48;;;;;;;21.85;9.35;;;;;;;4.78;90.56;102501.31;4995562;28;124942;-36
2022/01/16 08:19:14;;;;;;;10.77;4.85;;;;;;;4.78;90.58;102501.31;4996887;28;96443;-37
2022/01/16 08:21:39;;;;;;;13.25;6.60;;;;;;;4.74;90.66;102496.84;4996723;28;96826;-36
2022/01/16 08:24:05;;;;;;;12.95;6.18;;;;;;;4.85;90.89;102518.22;4995219;28;126397;-36
2022/01/16 08:26:32;;;;;;;13.95;5.47;;;;;;;4.62;91.14;102478.22;4994857;28;99015;-36
2022/01/16 08:28:57;;;;;;;18.13;7.03;;;;;;;4.70;91.19;102496.94;4996627;28;96455;-36
2022/01/16 08:31:23;;;;;;;18.08;7.13;;;;;;;4.73;91.52;102503.16;4995299;28;96917;-36
2022/01/16 08:33:49;;;;;;;15.88;5.47;;;;;;;4.74;91.65;102521.00;4996231;28;97783;-36
2022/01/16 08:36:14;;;;;;;23.40;8.13;;;;;;;4.73;91.36;102521.94;4996208;28;97310;-37
2022/01/16 08:38:39;;;;;;;22.90;7.68;;;;;;;4.63;91.61;102507.72;4995779;28;96553;-36
2022/01/16 08:41:04;;;;;;;21.77;9.18;;;;;;;4.58;92.12;102501.53;4996465;28;96720;-36
2022/01/16 08:43:30;;;;;;;25.20;9.25;;;;;;;4.61;91.54;102500.59;4995917;28;97827;-36
2022/01/16 08:45:56;;;;;;;18.10;6.57;;;;;;;4.64;91.80;102511.28;4995605;28;97836;-36
2022/01/16 08:48:21;;;;;;;20.75;8.13;;;;;;;4.52;91.74;102489.94;4996077;28;96477;-36
2022/01/16 08:50:47;;;;;;;21.98;8.90;;;;;;;4.58;92.04;102512.25;4996225;28;96753;-36
2022/01/16 08:53:12;;;;;;;23.52;9.38;;;;;;;4.65;92.20;102529.19;4995838;28;97257;-37
2022/01/16 08:55:37;;;;;;;27.38;9.27;;;;;;;4.57;92.11;102513.13;4996276;28;97247;-37
2022/01/16 08:58:03;;;;;;;28.90;9.55;;;;;;;4.71;92.23;102552.38;4995804;28;96690;-36
2022/01/16 09:00:29;;;;;;;23.38;8.43;;;;;;;4.57;92.09;102529.25;4995537;28;96793;-36
2022/01/16 09:02:54;;;;;;;16.73;6.75;;;;;;;4.68;92.09;102546.13;4995482;28;97406;-36
2022/01/16 09:05:20;;;;;;;21.98;8.90;;;;;;;4.57;92.24;102539.09;4995641;28;97776;-36
2022/01/16 09:07:45;;;;;;;28.20;11.25;;;;;;;4.53;91.97;102530.19;4995979;28;96539;-36
2022/01/16 09:10:10;;;;;;;28.92;9.50;;;;;;;4.51;92.16;102542.72;4995985;28;96588;-36
2022/01/16 09:12:36;;;;;;;24.27;9.45;;;;;;;4.49;92.26;102525.75;4994339;28;97943;-36
2022/01/16 09:15:07;;;;;;;49.40;11.73;;;;;;;4.62;92.34;102562.31;4993756;28;98960;-37
2022/01/16 09:17:32;;;;;;;17.35;8.93;;;;;;;4.51;92.69;102541.84;4994426;28;96647;-36
2022/01/16 09:19:58;;;;;;;38.92;13.35;;;;;;;4.62;92.60;102564.09;4996164;28;96795;-37
2022/01/16 09:22:23;;;;;;;28.40;9.32;;;;;;;4.59;92.40;102562.31;4995541;28;97851;-36
2022/01/16 09:24:49;;;;;;;33.35;8.80;;;;;;;4.51;92.55;102550.78;4995267;28;97390;-36
2022/01/16 09:27:14;;;;;;;39.80;11.60;;;;;;;4.60;92.68;102566.81;4993758;28;96581;-36
2022/01/16 09:29:40;;;;;;;33.85;9.98;;;;;;;4.51;92.60;102550.78;4995722;28;97006;-37
2022/01/16 09:32:05;;;;;;;45.33;11.77;;;;;;;4.54;92.32;102557.91;4995160;28;97902;-37
2022/01/16 09:34:31;;;;;;;36.63;13.10;;;;;;;4.60;92.76;102576.63;4995351;28;97587;-37
2022/01/16 09:36:57;;;;;;;31.73;13.00;;;;;;;4.51;92.50;102563.31;4995403;28;96588;-37
2022/01/16 09:39:22;;;;;;;20.30;8.80;;;;;;;4.61;92.93;102587.34;4994318;28;117206;-36
2022/01/16 09:41:47;;;;;;;20.67;9.13;;;;;;;4.60;92.81;102595.41;4994304;28;120297;-36
2022/01/16 09:44:15;;;;;;;41.38;12.18;;;;;;;4.47;92.96;102576.72;4994195;28;122719;-36
2022/01/16 09:46:40;;;;;;;34.35;12.32;;;;;;;4.47;92.82;102575.84;4993924;28;96516;-36
2022/01/16 09:49:06;;;;;;;20.33;8.98;;;;;;;4.37;92.57;102560.75;4995365;28;96722;-37
2022/01/16 09:51:32;;;;;;;27.00;9.48;;;;;;;4.55;93.16;102592.75;4992854;28;100821;-37
2022/01/16 09:53:58;;;;;;;32.10;13.07;;;;;;;4.54;93.40;102607.09;4994922;28;97820;-36
2022/01/16 09:56:24;;;;;;;19.25;7.50;;;;;;;4.54;93.21;102606.22;4993839;28;96484;-36
2022/01/16 09:58:50;;;;;;;33.40;10.55;;;;;;;4.43;93.00;102593.78;4992985;28;96843;-36
2022/01/16 10:01:16;;;;;;;26.02;8.32;;;;;;;4.50;93.40;102608.00;4993441;28;99113;-36
2022/01/16 10:03:44;;;;;;;26.58;9.02;;;;;;;4.51;93.34;102611.63;4994747;28;97814;-36
2022/01/16 10:06:10;;;;;;;26.00;8.60;;;;;;;4.54;93.61;102612.47;4993514;28;96697;-37
2022/01/16 10:08:37;;;;;;;18.33;8.07;;;;;;;4.46;93.60;102604.47;4995412;28;96497;-37
2022/01/16 10:11:18;;;;;;;29.15;8.80;;;;;;;4.57;93.68;102628.53;4994527;28;97951;-36
2022/01/16 10:13:56;;;;;;;23.70;6.72;;;;;;;4.55;93.56;102621.41;4993157;28;100415;-36
2022/01/16 10:16:27;;;;;;;35.63;9.23;;;;;;;4.55;93.71;102622.28;4994956;28;96547;-36
2022/01/16 10:18:52;;;;;;;20.52;5.57;;;;;;;4.56;93.69;102624.09;4993521;28;96866;-37
2022/01/16 10:21:51;;;;;;;33.63;10.43;;;;;;;4.58;93.59;102627.66;4994707;28;98034;-37
2022/01/16 10:24:25;;;;;;;26.85;8.10;;;;;;;4.50;93.61;102599.09;4982140;28;98197;-37
2022/01/16 10:27:17;;;;;;;16.85;6.28;;;;;;;4.54;93.70;102600.84;4994827;28;96690;-36
2022/01/16 10:29:53;;;;;;;18.88;7.00;;;;;;;4.71;93.72;102630.22;4994899;28;96649;-36
2022/01/16 10:32:33;;;;;;;21.13;5.60;;;;;;;4.75;93.47;102634.66;4993007;28;98951;-36
2022/01/16 10:35:14;;;;;;;35.85;8.73;;;;;;;4.80;93.81;102624.78;4994888;28;97351;-36
2022/01/16 10:37:45;;;;;;;13.77;5.30;;;;;;;4.71;93.86;102604.25;4994885;28;96763;-36
2022/01/16 10:40:33;;;;;;;26.00;7.78;;;;;;;4.74;93.87;102611.41;4994426;28;96785;-36
2022/01/16 10:43:03;;;;;;;23.92;6.35;;;;;;;4.78;93.77;102610.47;4994020;28;97456;-36
2022/01/16 10:45:30;;;;;;;36.13;9.48;;;;;;;4.90;93.58;102621.09;4994134;28;98319;-36
2022/01/16 10:47:58;;;;;;;19.42;6.80;;;;;;;4.85;93.68;102602.34;4994569;28;97035;-37
2022/01/16 10:50:25;;;;;;;28.13;7.32;;;;;;;5.00;93.54;102627.28;4994561;28;96783;-36
2022/01/16 10:53:07;;;;;;;30.63;8.63;;;;;;;5.06;93.88;102633.47;4992564;28;98923;-37
2022/01/16 10:55:49;;;;;;;30.15;9.82;;;;;;;5.10;93.31;102637.00;4992572;28;101149;-36
2022/01/16 10:58:20;;;;;;;32.90;9.73;;;;;;;5.15;93.84;102634.28;4992745;28;96750;-37
2022/01/16 11:00:52;;;;;;;21.48;5.55;;;;;;;5.20;93.44;102640.53;4993046;28;96823;-36
2022/01/16 11:03:18;;;;;;;21.67;6.82;;;;;;;5.24;93.47;102639.56;4993926;28;97930;-37
2022/01/16 11:05:45;;;;;;;18.52;8.38;;;;;;;5.14;93.17;102617.28;4992425;28;100830;-36
2022/01/16 11:08:29;;;;;;;38.53;9.85;;;;;;;5.18;93.25;102616.34;4992243;28;96601;-36
2022/01/16 11:10:56;;;;;;;12.02;6.07;;;;;;;5.23;93.05;102619.88;4995489;28;96718;-37
2022/01/16 11:13:34;;;;;;;18.75;6.97;;;;;;;5.39;93.08;102642.09;4997288;28;97973;-36
2022/01/16 11:16:04;;;;;;;28.30;7.22;;;;;;;5.32;93.52;102609.03;4997331;28;97871;-37
2022/01/16 11:18:35;;;;;;;25.38;8.77;;;;;;;5.46;92.86;102624.13;4998135;28;96473;-36
2022/01/16 11:26:16;;;;;;;23.35;8.35;;;;;;;5.59;93.04;102632.91;4997325;28;97632;-36
2022/01/16 11:28:42;;;;;;;23.38;8.82;;;;;;;5.51;92.82;102628.50;4996100;28;97124;-36
2022/01/16 11:31:10;;;;;;;19.42;8.50;;;;;;;5.69;92.73;102656.06;4995979;28;96866;-36
2022/01/16 11:33:37;;;;;;;25.13;7.70;;;;;;;5.68;92.54;102633.69;4996567;28;97550;-37
2022/01/16 11:36:27;;;;;;;20.58;7.13;;;;;;;5.75;92.50;102639.88;4995627;28;98833;-36
2022/01/16 11:38:58;;;;;;;19.52;6.85;;;;;;;5.73;92.63;102630.94;4990382;28;96891;-36
2022/01/16 11:41:36;;;;;;;23.40;5.90;;;;;;;5.81;92.34;102634.41;4995894;28;96872;-36
2022/01/16 11:44:07;;;;;;;14.85;6.78;;;;;;;5.88;92.73;102633.41;4996980;28;97936;-36
2022/01/16 11:46:49;;;;;;;20.70;6.53;;;;;;;5.85;92.33;102620.03;4995529;28;100839;-36
2022/01/16 11:49:19;;;;;;;11.85;4.07;;;;;;;5.80;92.17;102600.38;4995430;28;96715;-37
2022/01/16 11:51:50;;;;;;;33.70;8.15;;;;;;;5.92;91.91;102610.97;4997298;28;96650;-37
2022/01/16 11:54:28;;;;;;;25.45;8.13;;;;;;;6.01;91.79;102615.38;4995393;28;100981;-36
2022/01/16 11:57:27;;;;;;;20.23;5.68;;;;;;;6.04;91.61;102618.00;4994988;28;100919;-37
2022/01/16 11:59:54;;;;;;;9.98;5.00;;;;;;;6.08;91.91;102621.56;4994903;28;96828;-37
2022/01/16 12:02:24;;;;;;;17.27;7.80;;;;;;;6.03;91.73;102612.63;4997031;28;96775;-37
2022/01/16 12:04:54;;;;;;;21.15;8.02;;;;;;;5.97;91.86;102596.59;4995069;28;101083;-36
2022/01/16 12:07:20;;;;;;;17.98;5.90;;;;;;;6.11;91.57;102626.88;4995261;28;99900;-36
2022/01/16 12:09:50;;;;;;;16.27;7.45;;;;;;;6.11;91.53;102618.81;4996920;28;96583;-37
2022/01/16 12:12:16;;;;;;;16.73;5.97;;;;;;;6.13;91.58;102619.69;4995467;28;96760;-36
2022/01/16 12:14:57;;;;;;;17.35;6.10;;;;;;;6.16;91.57;102619.63;4996516;28;97875;-36
2022/01/16 12:17:51;;;;;;;13.57;4.85;;;;;;;6.17;91.53;102626.78;4996678;28;99275;-37